Time;durP1;ratioP1;P1;durP2;ratioP2;P2;SDS_P1;SDS_P2;PMS_P1;PMS_P2;Temp;Humidity;BMP_temperature;BMP_pressure;BME280_temperature;BME280_humidity;BME280_pressure;Samples;Min_cycle;Max_cycle;Signal;HPM_P1;HPM_P2
2022/10/28 00:02:21;;;;;;;15.98;5.45;;;19.10;58.70;;;;;;5035255;28;20222;-38
2022/10/28 00:04:52;;;;;;;9.18;4.32;;;19.20;59.20;;;;;;5052680;28;20199;-38
2022/10/28 00:07:23;;;;;;;8.68;3.63;;;19.20;58.90;;;;;;5031765;28;20228;-38
2022/10/28 00:09:55;;;;;;;8.30;2.95;;;19.30;58.70;;;;;;5032253;28;20204;-40
2022/10/28 00:12:26;;;;;;;7.63;3.42;;;19.30;59.10;;;;;;5041429;28;20200;-38
2022/10/28 00:14:57;;;;;;;8.15;3.38;;;19.40;59.00;;;;;;5032368;28;20204;-41
2022/10/28 00:17:28;;;;;;;11.75;10.30;;;19.40;59.20;;;;;;5031906;28;20232;-38
2022/10/28 00:19:58;;;;;;;22.35;20.33;;;19.50;59.50;;;;;;5032197;28;20200;-38
2022/10/28 00:22:29;;;;;;;44.55;40.70;;;19.50;59.40;;;;;;5033188;28;20683;-38
2022/10/28 00:25:02;;;;;;;19.80;17.88;;;19.60;60.20;;;;;;5031749;28;20210;-40
2022/10/28 00:27:32;;;;;;;8.77;5.88;;;19.70;60.00;;;;;;5034842;28;20230;-39
2022/10/28 00:30:03;;;;;;;5.65;3.15;;;19.80;59.60;;;;;;5049595;28;20585;-38
2022/10/28 00:32:34;;;;;;;5.75;3.30;;;19.80;59.80;;;;;;5031829;28;20978;-38
2022/10/28 00:35:05;;;;;;;6.97;2.70;;;19.80;59.40;;;;;;5031430;28;20204;-41
2022/10/28 00:37:36;;;;;;;9.23;2.97;;;19.80;59.60;;;;;;5031845;28;20235;-39
2022/10/28 00:40:09;;;;;;;7.95;2.78;;;19.80;60.50;;;;;;5046287;28;20209;-47
2022/10/28 00:42:40;;;;;;;8.02;2.90;;;19.90;60.30;;;;;;5032075;28;20238;-41
2022/10/28 00:45:12;;;;;;;6.25;2.80;;;19.90;60.50;;;;;;5031055;28;20212;-38
2022/10/28 00:47:50;;;;;;;6.65;2.80;;;19.90;60.80;;;;;;5031909;28;20228;-38
2022/10/28 00:50:41;;;;;;;7.93;3.03;;;19.90;60.80;;;;;;5032143;28;20653;-45
2022/10/28 00:53:16;;;;;;;6.60;2.88;;;19.90;60.70;;;;;;5031557;28;20208;-41
2022/10/28 00:55:50;;;;;;;7.78;3.95;;;19.90;60.40;;;;;;5030869;28;20584;-41
2022/10/28 00:58:22;;;;;;;19.65;5.88;;;20.00;61.20;;;;;;5041587;28;20870;-41
2022/10/28 01:00:53;;;;;;;44.28;9.82;;;20.00;61.30;;;;;;5044730;28;20192;-39
2022/10/28 01:03:24;;;;;;;64.82;13.15;;;20.00;61.20;;;;;;5024923;28;20224;-39
2022/10/28 01:05:56;;;;;;;49.33;10.50;;;20.00;61.20;;;;;;5013151;28;20216;-39
2022/10/28 01:08:26;;;;;;;48.60;12.20;;;20.00;60.80;;;;;;5010570;28;20688;-46
2022/10/28 01:11:18;;;;;;;46.22;10.75;;;20.00;60.70;;;;;;5016552;28;20188;-39
2022/10/28 01:14:03;;;;;;;46.15;10.15;;;20.00;60.60;;;;;;5025417;28;20201;-42
2022/10/28 01:16:42;;;;;;;46.33;10.93;;;20.10;60.30;;;;;;5010774;28;20196;-39
2022/10/28 01:19:50;;;;;;;43.90;9.60;;;20.10;60.10;;;;;;5010383;28;20203;-39
2022/10/28 01:22:25;;;;;;;39.33;9.80;;;20.10;59.90;;;;;;5011082;28;20197;-41
2022/10/28 01:25:36;;;;;;;35.58;9.82;;;20.10;59.70;;;;;;5011018;28;20648;-39
2022/10/28 01:28:26;;;;;;;39.17;10.18;;;20.10;59.70;;;;;;4998241;28;20652;-39
2022/10/28 01:31:24;;;;;;;33.00;8.85;;;20.20;59.60;;;;;;5027072;28;20192;-39
2022/10/28 01:34:04;;;;;;;34.83;9.40;;;20.20;59.40;;;;;;5010923;28;20204;-39
2022/10/28 01:36:41;;;;;;;43.72;9.93;;;20.20;59.30;;;;;;5019022;28;20207;-41
2022/10/28 01:39:25;;;;;;;34.92;9.13;;;20.20;59.30;;;;;;5030607;28;20564;-43
2022/10/28 01:42:00;;;;;;;31.08;8.18;;;20.20;59.30;;;;;;5030147;28;20200;-39
2022/10/28 01:44:37;;;;;;;29.80;8.40;;;20.20;59.10;;;;;;5030924;28;20199;-39
2022/10/28 01:47:15;;;;;;;29.73;8.18;;;20.30;58.90;;;;;;5017530;28;20217;-39
2022/10/28 01:49:52;;;;;;;23.38;7.40;;;20.30;58.70;;;;;;5011499;28;20224;-39
2022/10/28 01:52:27;;;;;;;30.20;8.20;;;20.30;58.60;;;;;;5010583;28;20196;-40
2022/10/28 01:55:02;;;;;;;24.05;7.78;;;20.30;58.50;;;;;;5010846;28;20192;-39
2022/10/28 01:57:35;;;;;;;23.50;8.27;;;20.30;58.40;;;;;;5009758;28;20216;-39
2022/10/28 02:00:06;;;;;;;27.13;6.93;;;20.30;58.30;;;;;;5029406;28;20208;-40
2022/10/28 02:02:41;;;;;;;27.00;7.75;;;20.40;58.30;;;;;;5014715;28;20197;-39
2022/10/28 02:05:45;;;;;;;26.80;6.95;;;20.30;58.00;;;;;;5024353;28;20210;-39
2022/10/28 02:08:38;;;;;;;21.67;6.57;;;20.40;58.00;;;;;;5035747;28;20234;-43
2022/10/28 02:11:31;;;;;;;25.30;7.15;;;20.40;57.90;;;;;;5034577;28;20192;-39
2022/10/28 02:14:08;;;;;;;20.75;7.00;;;20.40;57.80;;;;;;5040702;28;20573;-42
2022/10/28 02:16:48;;;;;;;22.42;6.90;;;20.50;57.80;;;;;;5041595;28;20211;-46
2022/10/28 02:19:30;;;;;;;18.13;6.63;;;20.50;57.80;;;;;;5030324;28;20584;-39
2022/10/28 02:22:13;;;;;;;18.40;7.10;;;20.50;57.80;;;;;;5030232;28;20188;-39
2022/10/28 02:24:52;;;;;;;19.48;7.40;;;20.50;57.80;;;;;;5030520;28;20192;-39
2022/10/28 02:27:30;;;;;;;20.48;6.13;;;20.60;57.60;;;;;;5032449;28;20223;-39
2022/10/28 02:30:06;;;;;;;17.65;6.55;;;20.60;57.50;;;;;;5048600;28;20214;-39
2022/10/28 02:32:42;;;;;;;18.52;6.20;;;20.60;57.40;;;;;;5035691;28;20203;-39
2022/10/28 02:35:20;;;;;;;16.45;5.93;;;20.60;57.40;;;;;;5031239;28;20192;-42
2022/10/28 02:37:54;;;;;;;16.63;6.43;;;20.60;57.40;;;;;;5039837;28;20219;-39
2022/10/28 02:40:28;;;;;;;15.07;5.57;;;20.60;57.30;;;;;;5045996;28;20204;-42
2022/10/28 02:43:03;;;;;;;18.45;6.10;;;20.70;57.30;;;;;;5033072;28;20198;-39
2022/10/28 02:45:39;;;;;;;15.88;6.03;;;20.70;57.30;;;;;;5029968;28;20204;-39
2022/10/28 02:48:12;;;;;;;16.25;6.00;;;20.70;57.20;;;;;;5029301;28;20227;-39
2022/10/28 02:50:53;;;;;;;17.73;5.85;;;20.70;57.10;;;;;;5030473;28;20758;-44
2022/10/28 02:53:28;;;;;;;19.40;5.78;;;20.70;57.20;;;;;;5030486;28;20200;-42
2022/10/28 02:56:01;;;;;;;14.02;5.47;;;20.70;57.10;;;;;;5030152;28;20672;-39
2022/10/28 02:58:39;;;;;;;12.77;5.00;;;20.80;57.00;;;;;;5046272;28;20223;-39
2022/10/28 03:01:10;;;;;;;17.08;6.03;;;20.80;56.90;;;;;;5049264;28;20250;-39
2022/10/28 03:03:41;;;;;;;14.10;5.53;;;20.80;56.90;;;;;;5014128;28;20615;-39
2022/10/28 03:06:13;;;;;;;10.25;4.63;;;20.90;56.90;;;;;;5029760;28;20196;-39
2022/10/28 03:08:44;;;;;;;13.25;5.47;;;20.90;56.80;;;;;;5029214;28;20234;-39
2022/10/28 03:11:15;;;;;;;14.13;5.78;;;20.90;56.80;;;;;;5036742;28;20648;-39
2022/10/28 03:13:46;;;;;;;11.73;4.93;;;20.90;56.80;;;;;;5044528;28;20672;-40
2022/10/28 03:16:16;;;;;;;13.00;5.22;;;20.90;56.80;;;;;;5029738;28;20196;-39
2022/10/28 03:18:47;;;;;;;12.57;5.05;;;20.90;56.70;;;;;;5030209;28;20608;-39
2022/10/28 03:21:20;;;;;;;11.23;4.93;;;20.90;56.60;;;;;;5030603;28;20567;-39
2022/10/28 03:23:50;;;;;;;10.73;5.10;;;21.00;56.60;;;;;;5034232;28;20692;-39
2022/10/28 03:26:21;;;;;;;13.93;4.80;;;21.00;56.60;;;;;;5033661;28;20196;-39
2022/10/28 03:28:52;;;;;;;13.02;4.43;;;21.00;56.50;;;;;;5041969;28;20238;-39
2022/10/28 03:31:23;;;;;;;9.85;4.57;;;21.10;56.50;;;;;;5052795;28;20199;-39
2022/10/28 03:33:53;;;;;;;10.85;4.57;;;21.10;56.40;;;;;;5041920;28;20196;-40
2022/10/28 03:36:26;;;;;;;12.20;4.75;;;21.10;56.40;;;;;;5032053;28;20211;-39
2022/10/28 03:38:57;;;;;;;10.10;4.63;;;21.20;56.40;;;;;;5032765;28;20196;-39
2022/10/28 03:41:27;;;;;;;10.30;4.65;;;21.20;56.40;;;;;;5034053;28;20299;-41
2022/10/28 03:43:58;;;;;;;7.53;4.05;;;21.20;56.40;;;;;;5052633;28;20667;-39
2022/10/28 03:46:29;;;;;;;9.75;3.97;;;21.20;56.40;;;;;;5052581;28;20207;-41
2022/10/28 03:48:59;;;;;;;11.07;4.57;;;21.30;56.40;;;;;;5053146;28;20230;-39
2022/10/28 03:51:32;;;;;;;10.23;4.32;;;21.30;56.30;;;;;;5052031;28;20211;-40
2022/10/28 03:54:03;;;;;;;8.30;4.22;;;21.30;56.30;;;;;;5032483;28;20196;-39
2022/10/28 03:56:34;;;;;;;7.32;4.10;;;21.30;56.20;;;;;;5032940;28;20668;-39
2022/10/28 03:59:04;;;;;;;10.93;4.40;;;21.30;56.10;;;;;;5053074;28;20210;-39
2022/10/28 04:01:35;;;;;;;8.93;4.10;;;21.30;56.10;;;;;;5052106;28;20199;-53
2022/10/28 04:04:06;;;;;;;9.80;4.80;;;21.40;56.10;;;;;;5052548;28;20245;-38
2022/10/28 04:06:38;;;;;;;8.98;3.78;;;21.40;56.00;;;;;;5051597;28;20203;-39
2022/10/28 04:09:09;;;;;;;8.73;3.88;;;21.40;56.10;;;;;;5052015;28;20229;-41
2022/10/28 04:11:40;;;;;;;9.60;4.13;;;21.40;56.00;;;;;;5047951;28;20211;-40
2022/10/28 04:14:10;;;;;;;10.63;3.83;;;21.40;56.00;;;;;;5041518;28;20198;-40
2022/10/28 04:16:41;;;;;;;9.23;4.10;;;21.50;56.00;;;;;;5051170;28;20215;-40
2022/10/28 04:19:12;;;;;;;10.55;4.57;;;21.50;56.70;;;;;;5035388;28;20195;-39
2022/10/28 04:21:44;;;;;;;7.07;3.63;;;21.50;56.00;;;;;;5051446;28;20210;-39
2022/10/28 04:24:15;;;;;;;10.43;4.13;;;21.60;56.00;;;;;;5032379;28;20207;-39
2022/10/28 04:26:46;;;;;;;5.80;3.13;;;21.50;55.80;;;;;;5047562;28;20657;-39
2022/10/28 04:29:16;;;;;;;8.25;4.07;;;21.50;55.80;;;;;;5044502;28;20227;-39
2022/10/28 04:31:47;;;;;;;7.70;4.07;;;21.60;55.90;;;;;;5052670;28;20203;-39
2022/10/28 04:34:18;;;;;;;8.07;3.70;;;21.60;55.80;;;;;;5051119;28;20214;-39
2022/10/28 04:36:51;;;;;;;6.38;3.92;;;21.60;55.70;;;;;;5051450;28;20228;-39
2022/10/28 04:39:21;;;;;;;8.82;4.10;;;21.70;55.70;;;;;;5032865;28;20192;-39
2022/10/28 04:41:52;;;;;;;7.13;3.72;;;21.70;55.70;;;;;;5032417;28;20196;-40
2022/10/28 04:44:23;;;;;;;5.47;3.25;;;21.80;55.60;;;;;;5045047;28;20199;-41
2022/10/28 04:46:53;;;;;;;9.25;3.60;;;21.80;55.60;;;;;;5050606;28;20219;-39
2022/10/28 04:49:24;;;;;;;8.07;3.38;;;21.80;55.60;;;;;;5032020;28;20231;-39
2022/10/28 04:51:57;;;;;;;7.63;3.47;;;21.90;55.60;;;;;;5047831;28;20192;-40
2022/10/28 04:54:28;;;;;;;4.97;3.10;;;21.90;55.60;;;;;;5031196;28;20196;-39
2022/10/28 04:56:59;;;;;;;8.13;3.50;;;22.00;55.50;;;;;;5041567;28;20207;-39
2022/10/28 04:59:29;;;;;;;7.07;3.42;;;22.00;55.40;;;;;;5045255;28;20204;-43
2022/10/28 05:02:00;;;;;;;6.82;3.95;;;22.00;55.40;;;;;;5050937;28;20195;-39
2022/10/28 05:04:31;;;;;;;5.70;3.30;;;22.00;55.30;;;;;;5050382;28;20203;-39
2022/10/28 05:07:03;;;;;;;7.45;3.30;;;22.00;55.20;;;;;;5050996;28;20606;-41
2022/10/28 05:09:34;;;;;;;6.68;3.30;;;22.10;55.30;;;;;;5034913;28;20588;-39
2022/10/28 05:12:05;;;;;;;5.15;3.20;;;22.10;55.20;;;;;;5029227;28;20202;-39
2022/10/28 05:14:36;;;;;;;5.88;3.40;;;22.10;55.20;;;;;;5029173;28;20750;-39
2022/10/28 05:17:07;;;;;;;5.22;3.00;;;22.10;55.10;;;;;;5030851;28;20216;-39
2022/10/28 05:19:37;;;;;;;8.13;3.58;;;22.10;55.00;;;;;;5048187;28;20214;-43
2022/10/28 05:22:10;;;;;;;6.90;3.25;;;22.10;55.00;;;;;;5048498;28;20195;-41
2022/10/28 05:24:40;;;;;;;6.80;3.33;;;22.20;54.90;;;;;;5050290;28;20202;-39
2022/10/28 05:27:11;;;;;;;6.15;3.35;;;22.20;54.90;;;;;;5050126;28;20219;-39
2022/10/28 05:29:42;;;;;;;5.30;2.75;;;22.20;54.80;;;;;;5049960;28;20702;-39
2022/10/28 05:32:13;;;;;;;6.53;3.35;;;22.20;54.70;;;;;;5049242;28;20207;-39
2022/10/28 05:34:43;;;;;;;6.45;3.30;;;22.20;54.70;;;;;;5049492;28;20195;-39
2022/10/28 05:37:16;;;;;;;6.45;3.22;;;22.20;54.70;;;;;;5049073;28;20216;-39
2022/10/28 05:39:47;;;;;;;10.25;3.72;;;22.20;54.70;;;;;;5050289;28;20539;-40
2022/10/28 05:42:17;;;;;;;4.88;2.70;;;22.20;55.30;;;;;;5050073;28;20191;-39
2022/10/28 05:44:48;;;;;;;4.75;2.78;;;22.20;54.80;;;;;;5049522;28;20187;-39
2022/10/28 05:47:19;;;;;;;5.88;2.90;;;22.20;54.80;;;;;;5049175;28;20245;-39
2022/10/28 05:49:50;;;;;;;5.28;2.80;;;22.30;54.80;;;;;;5049887;28;20820;-39
2022/10/28 05:52:22;;;;;;;4.32;2.78;;;22.30;54.80;;;;;;5049633;28;20202;-40
2022/10/28 05:54:53;;;;;;;4.88;2.92;;;22.30;54.70;;;;;;5049550;28;20203;-40
2022/10/28 05:57:24;;;;;;;6.55;3.10;;;22.30;54.60;;;;;;5049080;28;20215;-39
2022/10/28 05:59:54;;;;;;;6.30;2.90;;;22.30;54.50;;;;;;5049648;28;20234;-40
2022/10/28 06:02:25;;;;;;;6.80;2.92;;;22.30;54.50;;;;;;5049842;28;20195;-40
2022/10/28 06:04:56;;;;;;;4.60;2.65;;;22.30;54.50;;;;;;5049678;28;20211;-39
2022/10/28 06:07:30;;;;;;;5.93;3.25;;;22.30;54.40;;;;;;5046845;28;20212;-39
2022/10/28 06:10:01;;;;;;;6.70;3.42;;;22.30;54.40;;;;;;5029184;28;20644;-39
2022/10/28 06:12:32;;;;;;;6.53;3.03;;;22.30;54.40;;;;;;5029512;28;20196;-39
2022/10/28 06:15:02;;;;;;;4.53;2.97;;;22.30;54.50;;;;;;5029859;28;20611;-40
2022/10/28 06:17:33;;;;;;;6.05;3.20;;;22.30;54.40;;;;;;5029823;28;20231;-39
2022/10/28 06:20:04;;;;;;;4.57;2.67;;;22.30;54.40;;;;;;5029803;28;20203;-40
2022/10/28 06:22:37;;;;;;;4.25;2.67;;;22.30;54.40;;;;;;5046456;28;20203;-40
2022/10/28 06:25:08;;;;;;;5.18;2.97;;;22.30;54.40;;;;;;5049293;28;20195;-41
2022/10/28 06:27:39;;;;;;;6.00;3.03;;;22.30;54.40;;;;;;5049246;28;20215;-40
2022/10/28 06:30:11;;;;;;;3.85;2.40;;;22.30;54.30;;;;;;5049029;28;20241;-39
2022/10/28 06:32:41;;;;;;;6.85;2.95;;;22.30;54.30;;;;;;5049423;28;20559;-45
2022/10/28 06:35:12;;;;;;;6.80;3.00;;;22.30;54.20;;;;;;5049414;28;20206;-46
2022/10/28 06:37:45;;;;;;;4.38;2.90;;;22.30;54.20;;;;;;5048922;28;20211;-39
2022/10/28 06:40:15;;;;;;;6.10;3.00;;;22.30;54.20;;;;;;5049291;28;20663;-39
2022/10/28 06:42:46;;;;;;;4.97;2.65;;;22.30;54.10;;;;;;5049249;28;20199;-40
2022/10/28 06:45:17;;;;;;;5.13;2.92;;;22.30;54.20;;;;;;5049407;28;20313;-40
2022/10/28 06:47:48;;;;;;;6.05;3.00;;;22.30;54.20;;;;;;5049570;28;20211;-39
2022/10/28 06:50:18;;;;;;;4.60;2.80;;;22.30;54.10;;;;;;5048658;28;20215;-41
2022/10/28 06:52:51;;;;;;;6.30;3.22;;;22.30;54.10;;;;;;5048962;28;20200;-40
2022/10/28 06:55:22;;;;;;;5.40;2.70;;;22.30;54.10;;;;;;5049595;28;20199;-39
2022/10/28 06:57:52;;;;;;;3.40;2.50;;;22.30;54.70;;;;;;5050216;28;20582;-41
2022/10/28 07:00:23;;;;;;;4.97;2.72;;;22.30;54.10;;;;;;5052922;28;20200;-39
2022/10/28 07:02:55;;;;;;;5.07;3.20;;;22.30;54.10;;;;;;5052514;28;20191;-39
2022/10/28 07:05:28;;;;;;;5.97;2.95;;;22.20;54.00;;;;;;5051579;28;20575;-40
2022/10/28 07:08:00;;;;;;;4.95;2.72;;;22.30;54.10;;;;;;5052243;28;20215;-46
2022/10/28 07:10:31;;;;;;;5.22;2.55;;;22.20;54.60;;;;;;5052577;28;20219;-39
2022/10/28 07:13:02;;;;;;;4.75;2.72;;;22.20;54.00;;;;;;5052382;28;20196;-39
2022/10/28 07:15:33;;;;;;;3.33;2.45;;;22.20;54.00;;;;;;5052765;28;20648;-40
2022/10/28 07:18:03;;;;;;;4.95;2.50;;;22.20;54.60;;;;;;5052601;28;20215;-39
2022/10/28 07:20:34;;;;;;;4.68;2.90;;;22.20;54.00;;;;;;5052441;28;20195;-43
2022/10/28 07:23:07;;;;;;;7.07;2.80;;;22.20;54.00;;;;;;5052343;28;20191;-43
2022/10/28 07:25:37;;;;;;;6.65;2.90;;;22.20;54.00;;;;;;5052893;28;20203;-39
2022/10/28 07:28:09;;;;;;;3.50;2.17;;;22.10;53.90;;;;;;5051751;28;20216;-40
2022/10/28 07:30:39;;;;;;;5.35;2.72;;;22.10;53.90;;;;;;5052313;28;20223;-41
2022/10/28 07:33:10;;;;;;;4.53;3.00;;;22.10;53.90;;;;;;5051787;28;20196;-39
2022/10/28 07:35:41;;;;;;;4.43;2.92;;;22.10;54.00;;;;;;5051893;28;20196;-39
2022/10/28 07:38:14;;;;;;;4.65;2.80;;;22.10;53.90;;;;;;5051849;28;20220;-39
2022/10/28 07:40:45;;;;;;;3.63;2.38;;;22.10;53.90;;;;;;5052543;28;20199;-45
2022/10/28 07:43:15;;;;;;;4.28;2.70;;;22.00;53.90;;;;;;5052238;28;20241;-41
2022/10/28 07:45:46;;;;;;;5.57;3.03;;;22.10;53.90;;;;;;5051712;28;20199;-39
2022/10/28 07:48:17;;;;;;;4.32;2.53;;;22.00;53.90;;;;;;5051812;28;20215;-40
2022/10/28 07:50:47;;;;;;;4.32;2.42;;;22.00;53.90;;;;;;5052035;28;20705;-40
2022/10/28 07:53:20;;;;;;;3.65;2.53;;;22.00;53.90;;;;;;5051651;28;20203;-44
2022/10/28 07:55:58;;;;;;;3.30;2.60;;;22.00;53.90;;;;;;5052004;28;20195;-39
2022/10/28 07:58:29;;;;;;;4.53;2.58;;;22.00;53.90;;;;;;5051847;28;20211;-39
2022/10/28 08:01:05;;;;;;;4.28;2.50;;;21.90;53.90;;;;;;5051845;28;20694;-39
2022/10/28 08:03:36;;;;;;;4.28;2.63;;;21.90;53.90;;;;;;5052051;28;20199;-39
2022/10/28 08:06:08;;;;;;;5.40;2.55;;;21.90;53.90;;;;;;5051948;28;20196;-39
2022/10/28 08:08:42;;;;;;;3.80;2.50;;;21.90;53.90;;;;;;5032298;28;20223;-39
2022/10/28 08:11:13;;;;;;;3.50;2.30;;;21.90;53.90;;;;;;5031824;28;20591;-39
2022/10/28 08:13:44;;;;;;;4.00;2.55;;;21.90;53.90;;;;;;5031953;28;20196;-40
2022/10/28 08:16:15;;;;;;;4.38;2.55;;;21.80;53.80;;;;;;5031809;28;20208;-42
2022/10/28 08:18:46;;;;;;;4.57;2.58;;;21.80;53.90;;;;;;5031366;28;20196;-39
2022/10/28 08:21:17;;;;;;;3.65;2.67;;;21.80;53.80;;;;;;5030684;28;20208;-39
2022/10/28 08:23:50;;;;;;;2.97;2.17;;;21.80;53.80;;;;;;5031516;28;20207;-39
2022/10/28 08:26:20;;;;;;;3.55;2.30;;;21.80;53.90;;;;;;5031138;28;20200;-39
2022/10/28 08:28:51;;;;;;;3.20;2.40;;;21.80;53.80;;;;;;5040270;28;20203;-42
2022/10/28 08:31:22;;;;;;;3.83;2.08;;;21.70;53.80;;;;;;5050976;28;20227;-39
2022/10/28 08:33:53;;;;;;;3.95;2.45;;;21.70;53.80;;;;;;5050871;28;20206;-40
2022/10/28 08:36:23;;;;;;;4.45;2.15;;;21.60;53.80;;;;;;5050699;28;20199;-39
2022/10/28 08:38:58;;;;;;;3.15;2.47;;;21.70;53.80;;;;;;5031653;28;20577;-39
2022/10/28 08:41:39;;;;;;;3.58;2.40;;;21.70;53.90;;;;;;5041816;28;20190;-39
2022/10/28 08:44:33;;;;;;;4.53;2.45;;;21.70;53.80;;;;;;5051221;28;20215;-43
2022/10/28 08:47:15;;;;;;;3.25;2.30;;;21.60;53.80;;;;;;5031165;28;20578;-39
2022/10/28 08:49:48;;;;;;;2.78;2.42;;;21.60;53.70;;;;;;5031078;28;20563;-39
2022/10/28 08:52:28;;;;;;;3.38;2.33;;;21.60;53.80;;;;;;5037464;28;20196;-41
2022/10/28 08:55:05;;;;;;;3.10;2.53;;;21.50;53.70;;;;;;5050962;28;20195;-39
2022/10/28 08:57:40;;;;;;;4.28;2.58;;;21.60;53.80;;;;;;5050651;28;20215;-40
2022/10/28 09:00:18;;;;;;;3.33;2.42;;;21.60;53.80;;;;;;5050522;28;20575;-40
2022/10/28 09:03:02;;;;;;;3.72;2.33;;;21.50;53.80;;;;;;5050694;28;20205;-39
2022/10/28 09:05:33;;;;;;;3.05;2.22;;;21.50;53.80;;;;;;5050599;28;20589;-39
2022/10/28 09:08:05;;;;;;;3.40;2.13;;;21.50;53.80;;;;;;5043043;28;20215;-41
2022/10/28 09:11:01;;;;;;;3.17;2.40;;;21.50;53.90;;;;;;5051563;28;20732;-39
2022/10/28 09:13:41;;;;;;;3.70;2.38;;;21.50;53.90;;;;;;5022564;28;20211;-47
2022/10/28 09:16:16;;;;;;;3.13;2.40;;;21.40;53.80;;;;;;5030876;28;20199;-40
2022/10/28 09:18:54;;;;;;;3.83;2.03;;;21.40;53.80;;;;;;5049434;28;20195;-39
2022/10/28 09:21:33;;;;;;;4.97;2.20;;;21.50;53.80;;;;;;5045337;28;20188;-39
2022/10/28 09:24:12;;;;;;;10.38;2.67;;;21.40;54.10;;;;;;5031347;28;20198;-41
2022/10/28 09:26:55;;;;;;;5.32;2.67;;;21.50;54.60;;;;;;5030887;28;20216;-38
2022/10/28 09:29:42;;;;;;;6.45;2.50;;;21.50;54.60;;;;;;5044277;28;20195;-39
2022/10/28 09:32:22;;;;;;;4.55;2.63;;;21.50;54.60;;;;;;5050428;28;20235;-39
2022/10/28 09:34:57;;;;;;;4.75;2.22;;;21.50;54.60;;;;;;5049627;28;20207;-40
2022/10/28 09:37:32;;;;;;;4.47;2.10;;;21.50;54.60;;;;;;5037454;28;20683;-41
2022/10/28 09:40:06;;;;;;;5.40;2.28;;;21.50;54.60;;;;;;5031473;28;20687;-40
2022/10/28 09:42:46;;;;;;;3.70;2.30;;;21.50;54.70;;;;;;5042306;28;20206;-41
2022/10/28 09:45:20;;;;;;;5.75;2.30;;;21.50;55.00;;;;;;5042710;28;20192;-40
2022/10/28 09:47:57;;;;;;;4.55;2.20;;;21.50;55.00;;;;;;5046042;28;20212;-41
2022/10/28 09:50:32;;;;;;;11.95;2.83;;;21.50;55.70;;;;;;5050669;28;20628;-39
2022/10/28 09:53:11;;;;;;;9.20;2.72;;;21.50;55.30;;;;;;5050956;28;20195;-45
2022/10/28 09:55:42;;;;;;;4.80;2.22;;;21.40;55.40;;;;;;5050750;28;20191;-43
2022/10/28 09:58:15;;;;;;;4.30;2.78;;;21.50;55.30;;;;;;5049348;28;20227;-39
2022/10/28 10:00:46;;;;;;;5.80;2.85;;;21.50;55.20;;;;;;5049874;28;20191;-40
2022/10/28 10:03:18;;;;;;;4.68;2.60;;;21.40;55.10;;;;;;5030670;28;20207;-41
2022/10/28 10:05:52;;;;;;;3.25;2.35;;;21.50;55.20;;;;;;5029954;28;20640;-41
2022/10/28 10:08:24;;;;;;;4.05;2.60;;;21.40;55.20;;;;;;5050023;28;20215;-38
2022/10/28 10:10:59;;;;;;;4.75;2.72;;;21.40;55.10;;;;;;5049791;28;20592;-40
2022/10/28 10:13:39;;;;;;;5.68;2.83;;;21.40;55.20;;;;;;5050723;28;20187;-39
2022/10/28 10:16:18;;;;;;;10.38;3.13;;;21.40;55.20;;;;;;5050299;28;20662;-39
2022/10/28 10:18:52;;;;;;;4.65;3.00;;;21.40;55.10;;;;;;5047154;28;20670;-40
2022/10/28 10:21:43;;;;;;;4.70;2.78;;;21.40;55.10;;;;;;5048607;28;20214;-40
2022/10/28 10:24:34;;;;;;;6.68;3.28;;;21.40;55.10;;;;;;5030320;28;20204;-44
2022/10/28 10:27:19;;;;;;;5.85;3.40;;;21.30;55.10;;;;;;5031397;28;20684;-45
2022/10/28 10:29:53;;;;;;;6.40;3.13;;;21.30;55.20;;;;;;5047438;28;20210;-39
2022/10/28 10:32:27;;;;;;;5.22;3.15;;;21.30;55.10;;;;;;5050082;28;20222;-39
2022/10/28 10:35:05;;;;;;;5.13;3.35;;;21.30;55.30;;;;;;5053901;28;20587;-38
2022/10/28 10:37:38;;;;;;;4.35;3.15;;;21.30;55.20;;;;;;5052027;28;20210;-39
2022/10/28 10:40:18;;;;;;;4.78;3.38;;;21.30;55.20;;;;;;5053716;28;20674;-41
2022/10/28 10:42:49;;;;;;;4.10;2.90;;;21.30;55.20;;;;;;5053517;28;20199;-40
2022/10/28 10:45:26;;;;;;;5.30;2.72;;;21.30;55.20;;;;;;5054195;28;20187;-39
2022/10/28 10:48:14;;;;;;;4.93;3.22;;;21.20;55.20;;;;;;5041630;28;20219;-39
2022/10/28 10:50:48;;;;;;;3.88;2.90;;;21.20;55.10;;;;;;5033425;28;20232;-41
2022/10/28 10:53:24;;;;;;;4.55;3.17;;;21.20;55.10;;;;;;5034133;28;20206;-39
2022/10/28 10:55:59;;;;;;;4.22;2.90;;;21.20;55.10;;;;;;5033265;28;20207;-39
2022/10/28 10:58:34;;;;;;;4.38;3.22;;;21.10;55.00;;;;;;5050885;28;20305;-39
2022/10/28 11:01:08;;;;;;;3.70;3.10;;;21.20;55.00;;;;;;5050238;28;20207;-44
2022/10/28 11:03:41;;;;;;;4.10;2.92;;;21.20;55.00;;;;;;5033741;28;20196;-42
2022/10/28 11:06:22;;;;;;;4.18;3.00;;;21.20;54.90;;;;;;5033561;28;20207;-42
2022/10/28 11:08:59;;;;;;;3.90;2.40;;;21.10;54.80;;;;;;5034123;28;20226;-40
2022/10/28 11:11:40;;;;;;;3.88;2.92;;;21.10;54.90;;;;;;5033279;28;20228;-39
2022/10/28 11:14:25;;;;;;;4.28;2.80;;;21.10;54.80;;;;;;5033843;28;20206;-39
2022/10/28 11:16:58;;;;;;;3.85;2.80;;;21.10;54.80;;;;;;5033984;28;20270;-38
2022/10/28 11:19:32;;;;;;;4.18;2.67;;;21.00;54.80;;;;;;5032802;28;20196;-39
2022/10/28 11:22:20;;;;;;;3.10;2.60;;;21.10;54.80;;;;;;5032640;28;20203;-39
2022/10/28 11:25:09;;;;;;;5.70;2.78;;;21.00;54.70;;;;;;5032744;28;20200;-39
2022/10/28 11:27:53;;;;;;;3.78;2.78;;;21.00;54.80;;;;;;5045907;28;20258;-39
2022/10/28 11:30:35;;;;;;;4.07;2.63;;;21.00;54.70;;;;;;5032694;28;20200;-42
2022/10/28 11:33:14;;;;;;;4.60;2.85;;;21.00;54.70;;;;;;5032435;28;20200;-40
2022/10/28 11:36:03;;;;;;;3.05;2.53;;;21.00;54.70;;;;;;5032018;28;20198;-40
2022/10/28 11:39:03;;;;;;;3.80;2.53;;;21.00;54.70;;;;;;5032064;28;20687;-39
2022/10/28 11:41:45;;;;;;;3.75;2.42;;;21.00;54.60;;;;;;5032121;28;20200;-39
2022/10/28 11:44:29;;;;;;;3.65;2.53;;;20.90;54.60;;;;;;5046420;28;20207;-39
2022/10/28 11:47:13;;;;;;;3.30;2.83;;;20.90;54.60;;;;;;5032314;28;20212;-42
2022/10/28 11:50:17;;;;;;;3.63;2.65;;;20.90;54.60;;;;;;5032389;28;20206;-39
2022/10/28 11:53:23;;;;;;;3.95;2.47;;;20.90;54.60;;;;;;5030087;28;20227;-38
2022/10/28 11:56:01;;;;;;;3.13;2.40;;;20.90;54.60;;;;;;5030252;28;20230;-42
2022/10/28 11:58:42;;;;;;;2.85;2.25;;;20.90;54.50;;;;;;5040324;28;20572;-39
2022/10/28 12:01:39;;;;;;;3.50;2.55;;;20.80;54.50;;;;;;5052237;28;20195;-43
2022/10/28 12:04:36;;;;;;;3.50;2.63;;;20.80;54.50;;;;;;5051667;28;20211;-41
2022/10/28 12:07:36;;;;;;;3.00;2.70;;;20.80;54.50;;;;;;5051360;28;20258;-39
2022/10/28 12:10:22;;;;;;;3.08;2.50;;;20.80;54.50;;;;;;5041820;28;20200;-38
2022/10/28 12:13:00;;;;;;;3.83;2.42;;;20.80;54.40;;;;;;5051211;28;20596;-39
2022/10/28 12:15:38;;;;;;;3.03;2.30;;;20.80;54.40;;;;;;5051923;28;20783;-39
2022/10/28 12:18:17;;;;;;;3.80;2.30;;;20.80;54.40;;;;;;5051516;28;20719;-40
2022/10/28 12:20:54;;;;;;;4.15;2.55;;;20.80;54.40;;;;;;5051256;28;20199;-39
2022/10/28 12:23:27;;;;;;;2.60;2.20;;;20.80;54.40;;;;;;5051502;28;20202;-39
2022/10/28 12:26:03;;;;;;;3.03;2.13;;;20.70;54.40;;;;;;5049917;28;20188;-39
2022/10/28 12:28:39;;;;;;;3.90;2.53;;;20.70;54.40;;;;;;5050231;28;20861;-38
2022/10/28 12:31:14;;;;;;;4.22;2.30;;;20.70;54.40;;;;;;5051430;28;20214;-42
2022/10/28 12:33:48;;;;;;;3.67;2.53;;;20.70;54.40;;;;;;5051224;28;20203;-39
2022/10/28 12:36:31;;;;;;;2.78;2.25;;;20.70;54.40;;;;;;5051263;28;20200;-39
2022/10/28 12:39:06;;;;;;;2.80;1.98;;;20.70;54.40;;;;;;5051453;28;20199;-39
2022/10/28 12:41:54;;;;;;;2.72;2.30;;;20.70;54.30;;;;;;5051092;28;20210;-39
2022/10/28 12:44:27;;;;;;;3.75;2.50;;;20.70;54.30;;;;;;5050677;28;20568;-43
2022/10/28 12:47:13;;;;;;;2.75;1.98;;;20.70;54.30;;;;;;5050797;28;20226;-39
2022/10/28 12:49:53;;;;;;;3.00;2.38;;;20.70;54.30;;;;;;5050469;28;20195;-38
2022/10/28 12:52:34;;;;;;;2.47;2.20;;;20.70;54.20;;;;;;5050820;28;20584;-39
2022/10/28 12:55:17;;;;;;;3.35;2.20;;;20.70;54.20;;;;;;5050763;28;20666;-43
2022/10/28 12:57:55;;;;;;;2.35;2.08;;;20.70;54.30;;;;;;5050697;28;20238;-38
2022/10/28 13:00:28;;;;;;;3.17;2.20;;;20.60;54.20;;;;;;5030577;28;20225;-40
2022/10/28 13:03:06;;;;;;;3.20;2.38;;;20.60;54.20;;;;;;5030945;28;20200;-38
2022/10/28 13:05:44;;;;;;;2.88;2.00;;;20.60;54.20;;;;;;5030677;28;20195;-39
2022/10/28 13:08:42;;;;;;;3.10;2.22;;;20.60;54.20;;;;;;5030363;28;20216;-39
2022/10/28 13:11:50;;;;;;;1.98;1.73;;;20.60;54.20;;;;;;5030076;28;20573;-39
2022/10/28 13:14:44;;;;;;;2.42;1.83;;;20.60;54.20;;;;;;5042082;28;20570;-39
2022/10/28 13:17:26;;;;;;;2.25;1.75;;;20.60;54.20;;;;;;5048356;28;20734;-40
2022/10/28 13:20:09;;;;;;;2.13;1.90;;;20.60;54.10;;;;;;5050435;28;20195;-39
2022/10/28 13:23:00;;;;;;;2.92;2.35;;;20.60;54.10;;;;;;5049730;28;20187;-38
2022/10/28 13:25:55;;;;;;;2.20;2.00;;;20.60;54.10;;;;;;5050569;28;20210;-39
2022/10/28 13:28:33;;;;;;;2.38;1.90;;;20.60;54.20;;;;;;5050343;28;20218;-38